• Join FlightAware (Why Join?)
  • Login
  • US Flag 
Gobble Gobble! 
10:15PM EST


 

Airport Tracker/Info


-or-


 

Live Flight TrackerFlight Track Log ✈ VH-YNA ✈ 24-Aug-2013 ✈ YPJT / JAD - YPJT / JAD

Flight Track Log - Related Links

Times and Time Zones

All times are in EDT time to prevent confusion due to time zone crossing. See the VH-YNA flight status page for this flight to view local times or setup timezone preferences in your user account.

Time Position Orientation Groundspeed Altitude Reporting Facility
EDT Latitude Longitude Course Direction KTS MPH feet Rate Location/Type
09:23PM -31.9440 115.7570 North 103 119 1,500  Level Aus ATC (RADAR)
09:23PM -31.9291 115.7571 North 107 123 1,400 -120 Descending Aus ATC (RADAR)
09:24PM -31.9093 115.7565 359° North 106 122 1,400  Level Aus ATC (RADAR)
09:25PM -31.8765 115.7546 357° North 100 115 1,400  Level Aus ATC (RADAR)
09:26PM -31.8754 115.7431 276° West 103 119 1,500 60 Climbing Aus ATC (RADAR)
09:27PM -31.8958 115.7483 168° South 112 129 1,500  Level Aus ATC (RADAR)
09:27PM -31.9137 115.7502 175° South 113 130 1,500  Level Aus ATC (RADAR)
09:28PM -31.9316 115.7512 177° South 113 130 1,500  Level Aus ATC (RADAR)
09:29PM -31.9493 115.7512 180° South 110 127 1,500  Level Aus ATC (RADAR)
09:29PM -31.9672 115.7494 185° South 110 127 1,500  Level Aus ATC (RADAR)
09:30PM -31.9983 115.7483 182° South 110 127 1,500 60 Level Aus ATC (RADAR)
09:31PM -32.0282 115.7485 180° South 118 136 1,700  Climbing Aus ATC (RADAR)
09:32PM -32.0177 115.7602 43° Northeast 111 128 1,500 -180 Descending Aus ATC (RADAR)
09:32PM -32.0015 115.7583 354° North 101 116 1,500 -120 Level Aus ATC (RADAR)
09:33PM -31.9796 115.7571 357° North 102 117 1,400  Descending Aus ATC (RADAR)
09:34PM -31.9522 115.7582 North 97 112 1,500  Climbing Aus ATC (RADAR)
09:35PM -31.9215 115.7593 North 101 116 1,500  Level Aus ATC (RADAR)
09:36PM -31.9119 115.7770 58° Northeast 109 125 1,500  Level Aus ATC (RADAR)
09:37PM -31.9322 115.7923 147° Southeast 115 132 1,500  Level Aus ATC (RADAR)
09:38PM -31.9478 115.8048 146° Southeast 114 131 1,500  Level Aus ATC (RADAR)
09:38PM -31.9630 115.8176 144° Southeast 113 130 1,500  Level Aus ATC (RADAR)
09:39PM -31.9757 115.8284 144° Southeast 112 129 1,500  Level Aus ATC (RADAR)
09:39PM -31.9905 115.8413 144° Southeast 112 129 1,500  Level Aus ATC (RADAR)
09:40PM -32.0114 115.8630 139° Southeast 109 125 1,500 -120 Level Aus ATC (RADAR)
09:41PM -32.0086 115.8991 85° East 111 128 1,300 -180 Descending Aus ATC (RADAR)
09:42PM -32.0066 115.9251 85° East 116 133 1,200 -240 Descending Aus ATC (RADAR)
09:42PM -32.0028 115.9475 78° East 116 133 1,000 -480 Descending Aus ATC (RADAR)
09:43PM -31.9844 115.9523 13° North 112 129 700 -120 Descending Aus ATC (RADAR)
09:44PM -31.9676 115.9445 338° Northwest 114 131 900 360 Climbing Aus ATC (RADAR)
09:44PM -31.9616 115.9245 290° West 109 125 1,200 360 Climbing Aus ATC (RADAR)
09:45PM -31.9470 115.8851 294° West 113 130 1,600 120 Climbing Aus ATC (RADAR)
09:46PM -31.9399 115.8697 299° West 105 121 1,400 -240 Descending Aus ATC (RADAR)
09:46PM -31.9327 115.8521 296° West 100 115 1,400  Level Aus ATC (RADAR)
09:47PM -31.9261 115.8338 293° West 101 116 1,400 120 Level Aus ATC (RADAR)
09:48PM -31.9197 115.8164 293° West 98 113 1,600 60 Climbing Aus ATC (RADAR)
09:48PM -31.9128 115.7983 294° West 101 116 1,500 -120 Descending Aus ATC (RADAR)
09:49PM -31.9051 115.7808 297° West 101 116 1,500  Level Aus ATC (RADAR)
09:49PM -31.8956 115.7637 303° West 103 119 1,500 180 Level Aus ATC (RADAR)
09:50PM -31.8949 115.7386 272° West 96 110 1,800 540 Climbing Aus ATC (RADAR)
09:51PM -31.8739 115.7413 North 81 93 2,600 780 Climbing Aus ATC (RADAR)
09:52PM -31.8573 115.7428 North 79 91 3,100 660 Climbing Aus ATC (RADAR)
09:53PM -31.8444 115.7431 North 79 91 3,500 660 Climbing Aus ATC (RADAR)
09:53PM -31.8314 115.7450 North 83 96 3,900 480 Climbing Aus ATC (RADAR)
09:54PM -31.8297 115.7653 84° East 106 122 4,100 60 Climbing Aus ATC (RADAR)
09:54PM -31.8374 115.7865 113° Southeast 114 131 4,000 360 Descending Aus ATC (RADAR)
09:55PM -31.8487 115.8194 112° Southeast 112 129 4,700 600 Climbing Aus ATC (RADAR)
09:56PM -31.8541 115.8369 110° East 110 127 4,900 300 Climbing Aus ATC (RADAR)
09:56PM -31.8606 115.8547 113° Southeast 114 131 5,000 60 Climbing Aus ATC (RADAR)
09:57PM -31.8699 115.8833 111° Southeast 121 139 5,000  Level Aus ATC (RADAR)
09:58PM -31.8773 115.9069 110° East 125 144 5,000 60 Level Aus ATC (RADAR)
09:58PM -31.8847 115.9301 111° Southeast 125 144 5,100  Climbing Aus ATC (RADAR)
09:59PM -31.8909 115.9495 111° Southeast 124 143 5,000 -120 Descending Aus ATC (RADAR)
09:59PM -31.8979 115.9723 110° East 124 143 5,000  Level Aus ATC (RADAR)
10:00PM -31.9094 116.0119 109° East 124 143 5,000  Level Aus ATC (RADAR)
10:01PM -31.9197 116.0515 107° East 122 140 5,000 -180 Level Aus ATC (RADAR)
10:02PM -31.9292 116.0801 111° Southeast 127 146 4,700 -420 Descending Aus ATC (RADAR)
10:03PM -31.9385 116.1043 114° Southeast 136 157 4,500 -480 Descending Aus ATC (RADAR)
10:04PM -31.9536 116.1423 115° Southeast 138 159 4,000 -540 Descending Aus ATC (RADAR)
10:04PM -31.9698 116.1746 121° Southeast 134 154 3,600 -600 Descending Aus ATC (RADAR)
10:06PM -32.0154 116.1733 181° South 131 151 2,800 -600 Descending Aus ATC (RADAR)
10:07PM -32.0472 116.1643 193° South 128 147 2,400 -240 Descending Aus ATC (RADAR)
10:07PM -32.0723 116.1574 193° South 123 142 2,400 120 Level Aus ATC (RADAR)
10:08PM -32.0893 116.1533 192° South 123 142 2,600 60 Climbing Aus ATC (RADAR)
10:09PM -32.1154 116.1459 194° South 129 148 2,500 -120 Descending Aus ATC (RADAR)
10:10PM -32.1485 116.1327 199° South 124 143 2,400 -60 Descending Aus ATC (RADAR)
10:11PM -32.1725 116.1011 228° Southwest 118 136 2,400  Level Aus ATC (RADAR)
10:12PM -32.1891 116.0689 239° Southwest 112 129 2,400  Level Aus ATC (RADAR)
10:12PM -32.1990 116.0434 245° Southwest 109 125 2,400 -360 Level Aus ATC (RADAR)
10:13PM -32.2019 116.0262 259° West 103 119 2,000 -780 Descending Aus ATC (RADAR)
10:14PM -32.2013 116.0062 272° West 98 113 1,600 -480 Descending Aus ATC (RADAR)
10:14PM -32.1955 115.9871 290° West 101 116 1,500 -180 Descending Aus ATC (RADAR)
10:15PM -32.1869 115.9711 302° West 95 109 1,400 60 Descending Aus ATC (RADAR)
10:16PM -32.1689 115.9499 315° West 98 113 1,600  Climbing Aus ATC (RADAR)
10:17PM -32.1448 115.9279 322° Northwest 102 117 1,500 -60 Descending Aus ATC (RADAR)
10:17PM -32.1314 115.9158 323° Northwest 104 120 1,500  Level Aus ATC (RADAR)
10:18PM -32.1186 115.9033 320° Northwest 103 119 1,500  Level Aus ATC (RADAR)
10:18PM -32.1050 115.8906 322° Northwest 106 122 1,500  Level Aus ATC (RADAR)
10:19PM -32.0937 115.8800 322° Northwest 103 119 1,500 -240 Level Aus ATC (RADAR)
10:20PM -32.0841 115.8650 307° West 97 112 1,300 -420 Descending Aus ATC (RADAR)
10:21PM -32.1039 115.8484 215° Southwest 84 97 800 -480 Descending Aus ATC (RADAR)
10:22PM -32.1042 115.8672 91° East 65 75 300 -420 Descending Aus ATC (RADAR)
10:23PM -32.0974 115.8784 54° Northeast 52 60 100 -180 Descending Aus ATC (RADAR)
10:23PM -32.0955 115.8796 28° Northeast 14 16 100  Level Aus ATC (RADAR)